Time;durP1;ratioP1;P1;durP2;ratioP2;P2;SDS_P1;SDS_P2;PMS_P1;PMS_P2;Temp;Humidity;BMP_temperature;BMP_pressure;BME280_temperature;BME280_humidity;BME280_pressure;Samples;Min_cycle;Max_cycle;Signal;HPM_P1;HPM_P2
2023/12/10 00:00:20;;;;;;;43.20;24.83;;;;;;;1.38;100.00;62139.47;4988602;28;20254;-78
2023/12/10 00:02:48;;;;;;;38.78;23.98;;;;;;;1.39;100.00;62141.00;4983441;28;20224;-77
2023/12/10 00:05:14;;;;;;;45.15;24.38;;;;;;;1.34;100.00;62135.34;4988023;28;20203;-76
2023/12/10 00:07:41;;;;;;;49.00;25.48;;;;;;;1.29;100.00;62130.75;4987429;28;20228;-76
2023/12/10 00:10:10;;;;;;;42.92;23.83;;;;;;;1.21;100.00;62127.53;4985278;28;20200;-75
2023/12/10 00:12:37;;;;;;;46.53;26.58;;;;;;;1.19;100.00;62117.97;4987319;28;20436;-76
2023/12/10 00:15:05;;;;;;;46.80;25.00;;;;;;;1.29;100.00;62130.22;4985829;28;20516;-76
2023/12/10 00:17:32;;;;;;;39.83;23.00;;;;;;;1.24;100.00;62128.13;4987573;28;20243;-75
2023/12/10 00:19:59;;;;;;;48.22;24.98;;;;;;;1.20;100.00;62121.50;4978283;28;20201;-75
2023/12/10 00:22:26;;;;;;;44.42;24.60;;;;;;;1.32;100.00;62133.28;4986721;28;20232;-78
2023/12/10 00:24:53;;;;;;;40.55;23.65;;;;;;;1.25;100.00;62126.63;4986980;28;20300;-76
2023/12/10 00:27:21;;;;;;;46.92;25.02;;;;;;;1.08;100.00;62109.72;4987413;28;20529;-76
2023/12/10 00:29:48;;;;;;;43.78;23.35;;;;;;;1.15;100.00;62111.34;4984238;28;21547;-76
2023/12/10 00:32:15;;;;;;;44.70;23.65;;;;;;;1.19;100.00;62120.47;4987954;28;20254;-75
2023/12/10 00:34:42;;;;;;;45.97;24.63;;;;;;;1.17;100.00;62118.94;4988119;28;20203;-75
2023/12/10 00:37:09;;;;;;;44.17;24.40;;;;;;;1.38;100.00;62139.97;4987603;28;20540;-77
2023/12/10 00:39:37;;;;;;;45.28;23.90;;;;;;;1.15;100.00;62116.88;4986725;28;20394;-76
2023/12/10 00:42:04;;;;;;;42.15;23.40;;;;;;;1.39;100.00;62142.97;4986761;28;20235;-75
2023/12/10 00:44:32;;;;;;;46.95;25.10;;;;;;;1.30;100.00;62128.72;4986873;28;20236;-76
2023/12/10 00:46:59;;;;;;;46.28;24.60;;;;;;;1.29;100.00;62128.22;4985165;28;20248;-75
2023/12/10 00:49:26;;;;;;;44.83;25.13;;;;;;;1.25;100.00;62124.13;4978798;28;20216;-75
2023/12/10 00:51:53;;;;;;;49.28;24.73;;;;;;;1.11;100.00;62112.78;4984756;28;20234;-76
2023/12/10 00:54:20;;;;;;;48.03;25.27;;;;;;;1.09;100.00;62110.22;4975117;28;20203;-75
2023/12/10 00:56:47;;;;;;;45.65;24.23;;;;;;;1.16;100.00;62122.91;4986926;28;20226;-75
2023/12/10 00:59:14;;;;;;;47.75;25.90;;;;;;;1.23;100.00;62127.06;4986610;28;20565;-75
2023/12/10 01:01:42;;;;;;;43.95;25.27;;;;;;;1.15;100.00;62116.88;4981330;28;20223;-75
2023/12/10 01:04:09;;;;;;;45.88;25.17;;;;;;;1.15;100.00;62111.34;4986078;28;20509;-75
2023/12/10 01:06:36;;;;;;;44.97;25.65;;;;;;;1.08;100.00;62102.19;4986366;28;20264;-75
2023/12/10 01:09:04;;;;;;;47.67;24.20;;;;;;;0.97;100.00;62095.91;4986631;28;20231;-76
2023/12/10 01:11:31;;;;;;;50.33;25.88;;;;;;;0.99;100.00;62100.47;4976408;28;20220;-76
2023/12/10 01:13:58;;;;;;;41.47;24.13;;;;;;;0.96;100.00;62094.88;4985662;28;20376;-75
2023/12/10 01:16:25;;;;;;;43.15;24.50;;;;;;;1.02;100.00;62101.03;4986635;28;20208;-75
2023/12/10 01:18:53;;;;;;;44.65;23.63;;;;;;;1.19;100.00;62120.47;4985809;28;20239;-76
2023/12/10 01:21:20;;;;;;;41.05;22.67;;;;;;;1.25;100.00;62123.59;4982599;28;20210;-76
2023/12/10 01:23:49;;;;;;;46.47;24.33;;;;;;;1.29;100.00;62130.22;4987404;28;20241;-75
2023/12/10 01:26:16;;;;;;;43.85;24.75;;;;;;;1.32;100.00;62130.78;4987003;28;20212;-74
2023/12/10 01:28:43;;;;;;;40.75;23.40;;;;;;;1.27;100.00;62131.19;4986626;28;20224;-75
2023/12/10 01:31:10;;;;;;;40.45;24.25;;;;;;;1.38;100.00;62139.47;4986083;28;20208;-75
2023/12/10 01:33:37;;;;;;;38.72;22.98;;;;;;;1.33;100.00;62131.81;4985590;28;20231;-76
2023/12/10 01:36:07;;;;;;;45.88;23.38;;;;;;;1.44;100.00;62143.63;4981525;28;20220;-76
2023/12/10 01:38:34;;;;;;;40.35;23.40;;;;;;;1.33;100.00;62134.34;4978957;28;20223;-75
2023/12/10 01:41:01;;;;;;;61.03;24.92;;;;;;;1.17;100.00;62121.44;4984714;28;20234;-77
2023/12/10 01:43:28;;;;;;;45.35;23.90;;;;;;;1.24;100.00;62122.59;4985924;28;20228;-77
2023/12/10 01:45:55;;;;;;;38.92;22.20;;;;;;;1.29;100.00;62132.72;4984973;28;20204;-75
2023/12/10 01:48:23;;;;;;;44.78;23.77;;;;;;;1.46;100.00;62145.16;4984650;28;20234;-76
2023/12/10 01:50:50;;;;;;;44.28;24.55;;;;;;;1.56;100.00;62157.91;4985123;28;20469;-75
2023/12/10 01:53:18;;;;;;;45.03;23.08;;;;;;;1.43;100.00;62147.09;4985761;28;20235;-76
2023/12/10 01:55:45;;;;;;;47.42;24.00;;;;;;;1.29;100.00;62127.72;4978443;28;20235;-75
2023/12/10 01:58:12;;;;;;;48.92;23.85;;;;;;;1.35;100.00;62139.38;4984737;28;20223;-75
2023/12/10 02:00:40;;;;;;;45.53;21.70;;;;;;;1.18;100.00;62117.47;4985142;28;20271;-76
2023/12/10 02:03:06;;;;;;;43.03;23.30;;;;;;;1.19;100.00;62120.97;4983111;28;20597;-75
2023/12/10 02:05:34;;;;;;;43.33;21.73;;;;;;;1.33;100.00;62137.34;4968377;28;20242;-76
2023/12/10 02:08:00;;;;;;;45.28;22.55;;;;;;;1.27;100.00;62131.19;4985849;28;20236;-76
2023/12/10 02:10:29;;;;;;;44.03;23.70;;;;;;;1.31;100.00;62134.78;4985299;28;20208;-75
2023/12/10 02:12:56;;;;;;;42.33;23.55;;;;;;;1.36;100.00;62137.41;4984349;28;20307;-75
2023/12/10 02:15:23;;;;;;;42.00;23.73;;;;;;;1.36;100.00;62137.91;4982870;28;20246;-75
2023/12/10 02:17:50;;;;;;;41.92;24.77;;;;;;;1.41;100.00;62142.53;4984917;28;20223;-75
2023/12/10 02:20:18;;;;;;;40.28;23.35;;;;;;;1.26;100.00;62127.66;4983545;28;20485;-75
2023/12/10 02:22:48;;;;;;;36.70;21.50;;;;;;;1.27;100.00;62123.16;4984680;28;20549;-75
2023/12/10 02:25:15;;;;;;;43.05;24.65;;;;;;;1.30;100.00;62133.75;4982084;28;20239;-76
2023/12/10 02:27:44;;;;;;;45.08;24.92;;;;;;;1.42;100.00;62141.56;4992769;28;20286;-76
2023/12/10 02:30:13;;;;;;;47.88;24.08;;;;;;;1.40;100.00;62144.53;4984487;28;20446;-75
2023/12/10 02:32:40;;;;;;;47.15;24.58;;;;;;;1.56;100.00;62157.91;4980200;28;20289;-75
2023/12/10 02:35:08;;;;;;;52.78;26.80;;;;;;;1.35;100.00;62138.88;4983384;28;20208;-75
2023/12/10 02:37:35;;;;;;;41.00;21.73;;;;;;;1.37;100.00;62140.94;4987846;28;20307;-75
2023/12/10 02:40:02;;;;;;;40.85;23.25;;;;;;;1.50;100.00;62152.28;4983761;28;20528;-75
2023/12/10 02:42:29;;;;;;;35.75;20.67;;;;;;;1.60;100.00;62162.53;4978604;28;20246;-75
2023/12/10 02:44:57;;;;;;;38.53;22.17;;;;;;;1.56;100.00;62158.44;4985505;28;20231;-76
2023/12/10 02:47:24;;;;;;;39.05;21.50;;;;;;;1.44;100.00;62145.59;4984249;28;20282;-76
2023/12/10 02:49:51;;;;;;;40.83;22.38;;;;;;;1.49;100.00;62150.72;4983639;28;20308;-75
2023/12/10 02:52:22;;;;;;;34.88;20.42;;;;;;;1.54;100.00;62155.88;4983153;28;20490;-75
2023/12/10 02:54:49;;;;;;;36.20;21.88;;;;;;;1.54;100.00;62156.38;4984396;28;20247;-76
2023/12/10 02:57:16;;;;;;;40.22;21.50;;;;;;;1.52;100.00;62151.81;4973787;28;20456;-75
2023/12/10 02:59:43;;;;;;;47.90;21.83;;;;;;;1.52;100.00;62153.81;4983891;28;20553;-76
2023/12/10 03:02:11;;;;;;;41.90;23.20;;;;;;;1.37;100.00;62138.94;4982607;28;20226;-74
2023/12/10 03:04:38;;;;;;;42.03;23.60;;;;;;;1.32;100.00;62133.81;4984109;28;20470;-75
2023/12/10 03:07:05;;;;;;;45.08;23.30;;;;;;;1.40;100.00;62142.00;4984386;28;20529;-75
2023/12/10 03:09:32;;;;;;;43.35;22.85;;;;;;;1.43;100.00;62147.63;4979333;28;20212;-76
2023/12/10 03:11:59;;;;;;;44.72;23.65;;;;;;;1.30;100.00;62131.75;4984837;28;20252;-75
2023/12/10 03:14:26;;;;;;;39.53;22.88;;;;;;;1.37;100.00;62136.44;4984337;28;20211;-76
2023/12/10 03:16:53;;;;;;;38.92;22.25;;;;;;;1.38;100.00;62139.97;4986550;28;20256;-75
2023/12/10 03:19:21;;;;;;;46.45;23.60;;;;;;;1.41;100.00;62148.06;4973495;28;20317;-76
2023/12/10 03:21:48;;;;;;;33.25;19.17;;;;;;;1.32;100.00;62133.81;4974202;28;20259;-76
2023/12/10 03:24:15;;;;;;;30.02;16.83;;;;;;;1.42;100.00;62136.53;4987929;28;20235;-77
2023/12/10 03:26:42;;;;;;;25.40;14.68;;;;;;;1.48;100.00;62154.72;4976170;28;20250;-77
2023/12/10 03:29:09;;;;;;;23.40;14.13;;;;;;;1.38;100.00;62139.47;4984344;28;20267;-75
2023/12/10 03:31:36;;;;;;;22.73;13.38;;;;;;;1.38;100.00;62139.97;4980177;28;20204;-76
2023/12/10 03:34:02;;;;;;;22.98;13.25;;;;;;;1.42;100.00;62138.53;4987769;28;20670;-75
2023/12/10 03:36:31;;;;;;;21.98;12.93;;;;;;;1.43;100.00;62139.56;4986217;28;20208;-75
2023/12/10 03:38:58;;;;;;;22.95;13.75;;;;;;;1.33;100.00;62136.84;4980485;28;20203;-76
2023/12/10 03:41:25;;;;;;;18.10;11.85;;;;;;;1.31;100.00;62132.78;4986478;28;20208;-76
2023/12/10 03:43:52;;;;;;;25.33;13.70;;;;;;;1.34;100.00;62135.88;4987800;28;20216;-76
2023/12/10 03:46:18;;;;;;;20.35;12.13;;;;;;;1.28;100.00;62131.72;4982403;28;20228;-76
2023/12/10 03:48:45;;;;;;;20.90;12.77;;;;;;;1.26;100.00;62127.66;4982726;28;20399;-75
2023/12/10 03:51:12;;;;;;;22.67;13.43;;;;;;;1.21;100.00;62120.00;4986669;28;20211;-76
2023/12/10 03:53:40;;;;;;;26.73;14.25;;;;;;;1.10;100.00;62111.25;4987760;28;20491;-75
2023/12/10 03:56:09;;;;;;;27.45;13.30;;;;;;;1.11;100.00;62112.78;4988133;28;20218;-76
2023/12/10 03:58:37;;;;;;;22.67;13.77;;;;;;;1.00;100.00;62101.00;4987306;28;20629;-75
2023/12/10 04:01:04;;;;;;;21.15;13.05;;;;;;;0.88;100.00;62086.69;4984838;28;20416;-76
2023/12/10 04:03:31;;;;;;;24.05;14.18;;;;;;;0.94;100.00;62097.84;4986197;28;20223;-76
2023/12/10 04:05:57;;;;;;;29.13;14.20;;;;;;;1.01;100.00;62100.03;4988056;28;20251;-76
2023/12/10 04:08:24;;;;;;;35.88;20.27;;;;;;;1.11;100.00;62112.78;4987314;28;20422;-76
2023/12/10 04:10:53;;;;;;;23.95;13.60;;;;;;;1.19;100.00;62120.47;4976188;28;20528;-76
2023/12/10 04:13:20;;;;;;;23.52;13.70;;;;;;;1.11;100.00;62112.78;4987102;28;20234;-77
2023/12/10 04:15:47;;;;;;;20.40;13.07;;;;;;;1.06;100.00;62107.13;4999571;28;20227;-76
2023/12/10 04:18:15;;;;;;;23.30;13.40;;;;;;;1.06;100.00;62110.16;4992223;28;20296;-75
2023/12/10 04:20:43;;;;;;;20.00;12.77;;;;;;;0.88;100.00;62089.19;4985048;28;20212;-76
2023/12/10 04:23:10;;;;;;;24.17;14.35;;;;;;;0.87;100.00;62088.16;4987634;28;20223;-75
2023/12/10 04:25:37;;;;;;;22.67;12.73;;;;;;;0.81;100.00;62081.50;4986519;28;20578;-75
2023/12/10 04:28:06;;;;;;;25.80;14.32;;;;;;;0.66;100.00;62066.09;4977747;28;20292;-76
2023/12/10 04:30:34;;;;;;;23.02;13.98;;;;;;;0.79;100.00;62076.94;4983426;28;20516;-76
2023/12/10 04:33:01;;;;;;;22.88;14.80;;;;;;;0.76;100.00;62076.38;4986422;28;20224;-76
2023/12/10 04:35:27;;;;;;;27.23;15.43;;;;;;;0.76;100.00;62076.88;4986522;28;20532;-74
2023/12/10 04:37:54;;;;;;;27.70;17.13;;;;;;;0.62;100.00;62062.50;4985465;28;20236;-75
2023/12/10 04:40:22;;;;;;;28.88;17.35;;;;;;;0.70;100.00;62068.22;4986429;28;20423;-75
2023/12/10 04:42:49;;;;;;;33.28;17.30;;;;;;;0.77;100.00;62069.88;4986749;28;20228;-75
2023/12/10 04:45:18;;;;;;;28.05;15.50;;;;;;;0.88;100.00;62088.69;4986031;28;20246;-75
2023/12/10 04:47:45;;;;;;;26.85;15.60;;;;;;;0.92;100.00;62093.28;4979167;28;20228;-75
2023/12/10 04:50:12;;;;;;;37.67;21.13;;;;;;;0.87;100.00;62092.66;4983297;28;20235;-75
2023/12/10 04:52:39;;;;;;;36.22;18.38;;;;;;;0.93;100.00;62088.78;4986713;28;20234;-75
2023/12/10 04:55:07;;;;;;;30.17;17.05;;;;;;;0.96;100.00;62096.88;4982901;28;20589;-75
2023/12/10 04:57:34;;;;;;;30.58;17.92;;;;;;;0.81;100.00;62081.50;4979408;28;20259;-75
2023/12/10 05:00:01;;;;;;;39.00;20.55;;;;;;;0.88;100.00;62088.69;4986078;28;20513;-75
2023/12/10 05:02:29;;;;;;;30.48;17.10;;;;;;;0.93;100.00;62091.31;4983539;28;20417;-75
2023/12/10 05:04:56;;;;;;;32.08;19.10;;;;;;;0.95;100.00;62098.88;4986744;28;20561;-74
2023/12/10 05:07:23;;;;;;;45.55;25.13;;;;;;;1.03;100.00;62107.09;4986241;28;20234;-77
2023/12/10 05:09:50;;;;;;;32.20;18.77;;;;;;;1.01;100.00;62100.03;4986425;28;20214;-75
2023/12/10 05:12:17;;;;;;;36.75;19.80;;;;;;;0.98;100.00;62101.94;4980698;28;20259;-76
2023/12/10 05:14:43;;;;;;;31.17;18.85;;;;;;;0.86;100.00;62084.63;4985749;28;20235;-75
2023/12/10 05:17:10;;;;;;;27.98;17.52;;;;;;;0.91;100.00;62094.78;4984146;28;20220;-76
2023/12/10 05:19:39;;;;;;;30.83;16.90;;;;;;;0.75;100.00;62073.34;4984224;28;20200;-76
2023/12/10 05:22:06;;;;;;;29.73;17.45;;;;;;;0.68;100.00;62068.69;4986019;28;20311;-76
2023/12/10 05:24:33;;;;;;;35.83;18.50;;;;;;;0.73;100.00;62076.31;4985758;28;20368;-76
2023/12/10 08:39:21;;;;;;;27.60;16.23;;;;;;;3.35;100.00;62341.78;5563517;23;20227;-76
2023/12/10 08:41:48;;;;;;;25.17;16.80;;;;;;;3.09;100.00;62312.53;4983365;28;20376;-77
2023/12/10 08:44:15;;;;;;;29.95;18.80;;;;;;;3.12;100.00;62317.63;4986774;28;20409;-77
2023/12/10 08:46:42;;;;;;;31.17;17.95;;;;;;;3.24;100.00;62327.97;4979542;28;20279;-78
2023/12/10 08:49:09;;;;;;;26.88;18.52;;;;;;;3.46;100.00;62353.09;4979557;28;20226;-77
2023/12/10 08:51:36;;;;;;;30.65;18.42;;;;;;;3.50;100.00;62359.22;4987311;28;20204;-76
2023/12/10 08:54:03;;;;;;;26.98;16.73;;;;;;;3.40;100.00;62346.91;4987359;28;20433;-77
2023/12/10 08:56:31;;;;;;;30.35;19.15;;;;;;;3.57;100.00;62368.41;4982442;28;20216;-77
2023/12/10 08:58:58;;;;;;;32.22;18.75;;;;;;;3.78;100.00;62384.97;4986472;28;20261;-78
2023/12/10 09:01:25;;;;;;;28.70;18.95;;;;;;;3.87;100.00;62394.22;4984252;28;20488;-77
2023/12/10 09:03:52;;;;;;;26.40;17.13;;;;;;;3.81;100.00;62390.56;4983921;28;20948;-78
2023/12/10 09:06:19;;;;;;;24.52;15.52;;;;;;;3.94;100.00;62403.94;4987777;28;20227;-77
2023/12/10 09:08:46;;;;;;;25.17;14.48;;;;;;;3.63;100.00;62367.53;4981894;28;20227;-77
2023/12/10 09:11:13;;;;;;;23.15;14.80;;;;;;;3.78;100.00;62387.50;4984370;28;20208;-76
2023/12/10 09:13:42;;;;;;;26.60;16.73;;;;;;;3.65;100.00;62372.13;4984745;28;20456;-77
2023/12/10 09:16:09;;;;;;;21.27;13.68;;;;;;;3.53;100.00;62362.81;4981411;28;20197;-76
2023/12/10 09:18:36;;;;;;;24.15;15.50;;;;;;;3.36;100.00;62344.81;4985198;28;20220;-76
2023/12/10 09:21:03;;;;;;;25.88;16.70;;;;;;;3.64;100.00;62363.03;5002937;28;20213;-76
2023/12/10 09:23:30;;;;;;;24.75;15.38;;;;;;;3.86;100.00;62396.25;4980563;28;20227;-76
2023/12/10 09:25:57;;;;;;;28.08;17.83;;;;;;;3.90;100.00;62399.84;4995883;28;20290;-76
2023/12/10 09:28:24;;;;;;;27.98;17.67;;;;;;;4.01;100.00;62408.63;5004675;28;20196;-77
2023/12/10 09:30:52;;;;;;;33.22;18.23;;;;;;;4.09;100.00;62416.88;4994036;28;20227;-77
2023/12/10 09:33:19;;;;;;;25.58;16.67;;;;;;;4.15;100.00;62425.56;4966789;28;20201;-75
2023/12/10 09:35:46;;;;;;;36.72;17.85;;;;;;;4.14;100.00;62417.47;4966041;29;20204;-76
2023/12/10 09:38:13;;;;;;;27.58;18.42;;;;;;;4.22;100.00;62430.22;4966105;28;20204;-76
2023/12/10 09:40:40;;;;;;;28.65;17.88;;;;;;;3.65;100.00;62369.59;4969237;28;20203;-78
2023/12/10 09:43:07;;;;;;;29.38;18.67;;;;;;;3.51;100.00;62357.72;4966021;29;20746;-77
2023/12/10 09:45:34;;;;;;;28.83;17.92;;;;;;;3.32;100.00;62340.69;4966650;28;20295;-77
2023/12/10 09:48:02;;;;;;;30.08;16.98;;;;;;;3.40;100.00;62346.41;4968247;28;20210;-77
2023/12/10 09:50:29;;;;;;;33.17;18.95;;;;;;;3.52;100.00;62356.75;4991328;28;20462;-78
2023/12/10 09:52:57;;;;;;;28.20;17.48;;;;;;;3.57;100.00;62365.91;4977854;28;20452;-77
2023/12/10 09:55:23;;;;;;;32.65;18.90;;;;;;;3.45;100.00;62354.56;4979216;28;20238;-75
2023/12/10 09:57:51;;;;;;;38.97;20.20;;;;;;;3.51;100.00;62355.72;4980232;28;20516;-76
2023/12/10 10:00:18;;;;;;;33.75;19.27;;;;;;;3.39;100.00;62348.41;4992805;28;20463;-78
2023/12/10 10:02:45;;;;;;;36.40;19.67;;;;;;;3.63;100.00;62372.06;4985441;28;20260;-76
2023/12/10 10:05:15;;;;;;;32.80;18.98;;;;;;;3.58;100.00;62364.91;4978986;28;20717;-77
2023/12/10 10:07:42;;;;;;;31.17;18.05;;;;;;;3.62;100.00;62371.03;4982836;28;20191;-76
2023/12/10 10:10:11;;;;;;;32.05;20.33;;;;;;;3.72;100.00;62384.34;4987960;28;20288;-77
2023/12/10 10:12:38;;;;;;;33.58;19.50;;;;;;;3.80;100.00;62390.06;4982412;28;20284;-76
2023/12/10 10:15:06;;;;;;;31.77;18.45;;;;;;;3.73;100.00;62377.81;4983821;28;20220;-77
2023/12/10 10:17:35;;;;;;;34.60;20.02;;;;;;;3.65;100.00;62374.63;4971338;28;20384;-77
2023/12/10 10:20:04;;;;;;;36.22;19.60;;;;;;;3.69;100.00;62373.72;4969896;28;20221;-78
2023/12/10 10:22:33;;;;;;;29.63;17.92;;;;;;;3.55;100.00;62361.84;4978745;28;20218;-77
2023/12/10 10:25:00;;;;;;;34.75;19.35;;;;;;;3.11;100.00;62319.63;4984920;28;20231;-78
2023/12/10 10:27:27;;;;;;;34.70;19.48;;;;;;;3.30;100.00;62338.66;4985809;28;20303;-78
2023/12/10 10:29:54;;;;;;;31.90;19.27;;;;;;;3.52;100.00;62361.25;4983605;28;20220;-78
2023/12/10 10:32:21;;;;;;;35.28;20.15;;;;;;;3.53;100.00;62365.34;4966586;28;20382;-78
2023/12/10 10:34:48;;;;;;;29.33;18.95;;;;;;;3.49;100.00;62356.19;4966049;28;20228;-78
2023/12/10 10:37:15;;;;;;;38.17;20.98;;;;;;;3.81;100.00;62388.06;4965860;29;20220;-76
2023/12/10 10:39:44;;;;;;;39.92;20.20;;;;;;;3.73;100.00;62380.34;4973643;28;20252;-77
2023/12/10 10:42:12;;;;;;;34.33;19.33;;;;;;;3.58;100.00;62367.44;4984256;28;20404;-78
2023/12/10 10:44:39;;;;;;;33.22;19.73;;;;;;;3.74;100.00;62380.84;4983789;28;20298;-78
2023/12/10 10:47:06;;;;;;;29.70;17.70;;;;;;;3.90;100.00;62402.84;4966448;29;20273;-78
2023/12/10 10:49:33;;;;;;;33.65;19.70;;;;;;;4.00;100.00;62407.59;4966125;28;20244;-78
2023/12/10 10:52:00;;;;;;;34.00;19.33;;;;;;;4.16;100.00;62424.56;4973825;28;20206;-78
2023/12/10 10:54:27;;;;;;;29.30;19.15;;;;;;;4.09;100.00;62419.38;4985682;28;20250;-76
2023/12/10 10:56:56;;;;;;;29.58;18.85;;;;;;;4.05;100.00;62415.25;4985606;28;20240;-78
2023/12/10 10:59:29;;;;;;;34.17;21.10;;;;;;;4.15;100.00;62426.06;4985940;28;20227;-78
2023/12/10 11:01:56;;;;;;;32.25;20.17;;;;;;;4.42;100.00;62448.81;4984577;28;20204;-77
2023/12/10 11:04:23;;;;;;;31.38;18.70;;;;;;;4.56;100.00;62463.22;4974159;28;20271;-79
2023/12/10 11:06:51;;;;;;;31.95;20.33;;;;;;;4.44;100.00;62453.38;4966551;29;20258;-79
2023/12/10 11:09:18;;;;;;;32.35;19.98;;;;;;;4.56;100.00;62468.25;4966830;28;20611;-77
2023/12/10 11:11:45;;;;;;;41.22;20.70;;;;;;;4.70;100.00;62482.16;4976959;28;20197;-81
2023/12/10 11:14:23;;;;;;;37.63;20.77;;;;;;;4.79;100.00;62483.34;4985765;28;20532;-78
2023/12/10 11:16:55;;;;;;;36.42;19.80;;;;;;;4.66;100.00;62476.03;4982659;28;20204;-78
2023/12/10 11:19:22;;;;;;;42.28;21.65;;;;;;;4.33;100.00;62439.53;4984968;28;20235;-78
2023/12/10 11:21:50;;;;;;;39.15;21.33;;;;;;;4.42;100.00;62456.38;4979837;28;20216;-78
2023/12/10 11:24:16;;;;;;;33.53;19.98;;;;;;;4.43;100.00;62451.84;4982201;28;20711;-78
2023/12/10 11:26:43;;;;;;;37.45;21.52;;;;;;;4.28;100.00;62441.97;4981650;28;20228;-77
2023/12/10 11:29:10;;;;;;;36.05;19.98;;;;;;;4.05;100.00;62405.72;4984697;28;20383;-80
2023/12/10 11:31:39;;;;;;;34.33;21.70;;;;;;;4.22;100.00;62432.75;4978574;28;20254;-79
2023/12/10 11:34:06;;;;;;;33.83;20.55;;;;;;;4.33;100.00;62444.59;4979464;28;20227;-78
2023/12/10 11:36:33;;;;;;;34.70;21.23;;;;;;;4.36;100.00;62442.66;4982812;28;20433;-78
2023/12/10 11:38:58;;;;;;;42.67;22.38;;;;;;;4.42;100.00;62453.31;4985028;28;20583;-78
2023/12/10 11:41:25;;;;;;;36.15;20.50;;;;;;;4.39;100.00;62450.25;4976943;28;20197;-77
2023/12/10 11:43:52;;;;;;;35.92;20.77;;;;;;;4.47;100.00;62461.00;4988575;28;20685;-79
2023/12/10 11:46:20;;;;;;;33.88;20.20;;;;;;;4.38;100.00;62449.22;4980192;28;20550;-79
2023/12/10 11:48:50;;;;;;;35.60;21.00;;;;;;;4.54;100.00;62465.69;4985063;28;20220;-77
2023/12/10 11:51:18;;;;;;;30.13;18.67;;;;;;;4.59;100.00;62468.81;4987344;28;20267;-78
2023/12/10 11:53:46;;;;;;;34.53;19.27;;;;;;;4.72;100.00;62481.69;4988286;28;20464;-78
2023/12/10 11:56:14;;;;;;;37.72;20.83;;;;;;;4.85;100.00;62495.06;4988778;28;20200;-79
2023/12/10 11:58:42;;;;;;;29.52;16.98;;;;;;;5.09;100.00;62517.25;4985385;28;20219;-79
2023/12/10 12:01:09;;;;;;;25.38;15.68;;;;;;;5.17;100.00;62527.50;4983895;28;20275;-77
2023/12/10 12:03:36;;;;;;;25.75;17.23;;;;;;;4.94;100.00;62504.34;4988304;28;20387;-78
2023/12/10 12:06:05;;;;;;;26.13;16.42;;;;;;;5.09;100.00;62516.75;4986367;28;20208;-79
2023/12/10 12:08:33;;;;;;;23.23;15.40;;;;;;;5.26;100.00;62537.31;4987671;28;20243;-79
2023/12/10 12:11:00;;;;;;;25.10;16.45;;;;;;;5.24;100.00;62534.72;4989712;28;20271;-79
2023/12/10 12:13:28;;;;;;;47.63;24.98;;;;;;;5.39;100.00;62552.69;4979675;28;20219;-78
2023/12/10 12:15:55;;;;;;;50.70;27.88;;;;;;;5.46;100.00;62560.41;4949715;29;20209;-78
2023/12/10 12:18:24;;;;;;;27.90;17.83;;;;;;;5.64;100.00;62578.97;4954893;29;20209;-78
2023/12/10 12:20:51;;;;;;;30.85;17.63;;;;;;;5.59;100.00;62568.75;4949686;29;20198;-79
2023/12/10 12:23:20;;;;;;;24.52;17.50;;;;;;;5.55;100.00;62569.69;4965289;29;20224;-79
2023/12/10 12:25:47;;;;;;;27.08;16.05;;;;;;;5.62;100.00;62576.91;4968263;29;20201;-79
2023/12/10 12:28:14;;;;;;;29.83;17.05;;;;;;;5.59;100.00;62568.25;4960393;29;20240;-79
2023/12/10 12:30:42;;;;;;;24.63;15.35;;;;;;;5.84;99.79;62599.06;4953414;29;20244;-78
2023/12/10 12:33:08;;;;;;;23.75;15.32;;;;;;;5.83;99.38;62593.50;4953222;29;20464;-78
2023/12/10 12:35:36;;;;;;;22.50;14.77;;;;;;;5.94;99.50;62608.88;4959018;29;20230;-78
2023/12/10 12:38:10;;;;;;;23.38;16.00;;;;;;;5.88;98.84;62605.72;4960722;29;20524;-78
2023/12/10 12:40:39;;;;;;;22.90;15.50;;;;;;;6.04;99.09;62616.66;4950140;29;20220;-79
2023/12/10 12:43:06;;;;;;;21.35;14.07;;;;;;;6.00;98.39;62612.53;4950567;29;20225;-77
2023/12/10 12:45:33;;;;;;;20.25;13.13;;;;;;;6.23;96.47;62638.75;4948970;29;20480;-78
2023/12/10 12:48:00;;;;;;;24.92;13.80;;;;;;;6.16;94.42;62631.56;4946763;29;20288;-78
2023/12/10 12:50:28;;;;;;;24.17;13.95;;;;;;;6.16;94.46;62632.06;4948377;29;20257;-78
2023/12/10 12:52:55;;;;;;;23.48;13.63;;;;;;;6.30;94.36;62645.97;4953514;29;20206;-78
2023/12/10 12:55:22;;;;;;;18.55;12.27;;;;;;;6.42;92.60;62656.31;4961790;29;20225;-79
2023/12/10 12:57:51;;;;;;;18.65;12.27;;;;;;;6.38;91.85;62657.28;4968160;29;20217;-79
2023/12/10 13:00:18;;;;;;;16.77;12.07;;;;;;;6.42;91.89;62661.38;4936200;29;20239;-79
2023/12/10 13:02:45;;;;;;;18.55;12.57;;;;;;;6.48;92.79;62665.06;4940771;29;20202;-79
2023/12/10 13:05:13;;;;;;;21.38;14.35;;;;;;;6.57;92.08;62671.28;4945436;29;20293;-78
2023/12/10 13:07:40;;;;;;;19.20;13.00;;;;;;;6.64;92.60;62678.50;4963248;29;20560;-79
2023/12/10 13:10:08;;;;;;;20.45;13.60;;;;;;;6.61;92.25;62675.91;4969500;29;20225;-78
2023/12/10 13:12:35;;;;;;;22.55;14.15;;;;;;;6.60;93.18;62674.38;4965939;29;20209;-79
2023/12/10 13:15:04;;;;;;;23.25;13.77;;;;;;;6.58;93.58;62672.31;4965430;29;20232;-78
2023/12/10 13:17:31;;;;;;;22.88;14.18;;;;;;;6.29;96.01;62644.94;4956855;29;20489;-78
2023/12/10 13:19:58;;;;;;;19.95;13.15;;;;;;;6.02;98.09;62612.59;4956265;29;20379;-78
2023/12/10 13:22:25;;;;;;;25.13;14.25;;;;;;;5.80;100.00;62594.94;4949918;29;20216;-78
2023/12/10 13:24:52;;;;;;;22.83;12.05;;;;;;;5.34;100.00;62552.59;4926893;29;20464;-77
2023/12/10 13:29:13;;;;;;;20.55;12.98;;;;;;;5.52;100.00;62566.09;5119704;27;20809;-79
2023/12/10 13:31:40;;;;;;;18.73;12.40;;;;;;;5.59;100.00;62573.81;5117057;28;20460;-79
2023/12/10 13:34:07;;;;;;;19.15;12.80;;;;;;;5.58;100.00;62569.75;5122888;28;20264;-78
2023/12/10 13:36:35;;;;;;;18.25;12.57;;;;;;;5.62;100.00;62578.91;5123409;28;20545;-78
2023/12/10 13:39:03;;;;;;;14.65;10.32;;;;;;;5.10;100.00;62522.81;5137092;27;20230;-78
2023/12/10 13:41:30;;;;;;;13.25;10.05;;;;;;;5.03;100.00;62508.03;5126983;27;20195;-78
2023/12/10 13:43:57;;;;;;;13.95;10.25;;;;;;;5.01;100.00;62511.56;5123465;28;20290;-79
2023/12/10 13:46:25;;;;;;;18.27;11.25;;;;;;;5.17;100.00;62532.56;5123401;28;20250;-78
2023/12/10 13:48:52;;;;;;;18.02;11.25;;;;;;;5.20;100.00;62536.16;5124127;28;20242;-79
2023/12/10 13:51:19;;;;;;;16.27;10.63;;;;;;;5.31;100.00;62539.41;5123555;28;20218;-78
2023/12/10 13:53:47;;;;;;;15.52;10.60;;;;;;;5.21;100.00;62531.63;5122495;28;20219;-79
2023/12/10 13:56:14;;;;;;;15.02;10.27;;;;;;;4.79;100.00;62490.91;5123455;28;20202;-78
2023/12/10 13:58:41;;;;;;;14.13;10.60;;;;;;;4.81;100.00;62492.97;5122075;28;20215;-79
2023/12/10 14:01:07;;;;;;;14.48;9.77;;;;;;;4.87;100.00;62499.66;5123605;28;20203;-78
2023/12/10 14:03:36;;;;;;;15.32;10.07;;;;;;;4.88;100.00;62500.16;5122145;28;20217;-79
2023/12/10 14:06:04;;;;;;;16.55;10.60;;;;;;;4.81;100.00;62490.97;5123702;28;20266;-79
2023/12/10 14:08:31;;;;;;;18.67;11.45;;;;;;;4.96;100.00;62508.91;5123521;28;20337;-79
2023/12/10 14:10:59;;;;;;;16.83;11.00;;;;;;;4.91;100.00;62500.72;5123269;28;20191;-80
2023/12/10 14:13:26;;;;;;;18.38;11.15;;;;;;;4.94;100.00;62503.81;5119712;28;20259;-80
2023/12/10 14:15:54;;;;;;;16.15;11.05;;;;;;;4.94;100.00;62506.88;5123131;28;20199;-78
2023/12/10 14:18:23;;;;;;;14.55;9.07;;;;;;;4.90;100.00;62504.75;5122514;28;20196;-78
2023/12/10 14:20:51;;;;;;;15.25;10.48;;;;;;;4.88;100.00;62497.66;5113288;28;20491;-78
2023/12/10 14:23:18;;;;;;;13.38;9.98;;;;;;;4.86;100.00;62493.59;5121838;28;20200;-78
2023/12/10 14:25:45;;;;;;;13.35;9.77;;;;;;;4.82;100.00;62494.50;5121603;28;20195;-77
2023/12/10 14:28:12;;;;;;;27.48;16.88;;;;;;;4.82;100.00;62488.94;5109092;28;20227;-78
2023/12/10 14:30:39;;;;;;;19.83;13.65;;;;;;;4.69;100.00;62481.63;5122006;28;20211;-78